createdAt,value
2023-05-14T00:01:57.614Z,10.60
2023-05-14T00:06:59.472Z,10.70
2023-05-14T00:12:01.357Z,10.50
2023-05-14T00:17:03.025Z,10.40
2023-05-14T00:22:04.811Z,10.50
2023-05-14T00:27:07.199Z,10.40
2023-05-14T00:32:08.918Z,10.00
2023-05-14T00:37:10.790Z,10.10
2023-05-14T00:42:12.462Z,10.40
2023-05-14T00:47:14.386Z,10.30
2023-05-14T00:52:16.832Z,10.30
2023-05-14T00:57:19.075Z,10.00
2023-05-14T01:02:20.888Z,10.10
2023-05-14T01:07:51.572Z,9.90
2023-05-14T01:13:04.412Z,9.90
2023-05-14T01:18:13.852Z,9.80
2023-05-14T01:23:15.696Z,9.70
2023-05-14T01:28:20.088Z,9.80
2023-05-14T01:33:24.940Z,10.00
2023-05-14T01:38:30.320Z,10.10
2023-05-14T01:43:32.357Z,9.70
2023-05-14T01:48:34.112Z,9.60
2023-05-14T01:53:35.848Z,9.30
2023-05-14T01:58:37.514Z,9.00
2023-05-14T02:03:39.253Z,9.20
2023-05-14T02:08:40.954Z,9.20
2023-05-14T02:13:42.746Z,9.40
2023-05-14T02:18:44.594Z,9.70
2023-05-14T02:23:48.451Z,9.80
2023-05-14T02:28:50.213Z,9.90
2023-05-14T02:33:51.891Z,10.10
2023-05-14T02:38:55.921Z,10.00
2023-05-14T02:43:57.612Z,9.80
2023-05-14T02:48:59.414Z,9.60
2023-05-14T02:54:01.200Z,9.70
2023-05-14T02:59:03.072Z,10.00
2023-05-14T03:04:05.266Z,10.10
2023-05-14T03:09:07.543Z,10.40
2023-05-14T03:14:09.372Z,10.50
2023-05-14T03:19:11.162Z,10.60
2023-05-14T03:24:12.890Z,10.60
2023-05-14T03:29:18.006Z,10.80
2023-05-14T03:34:19.814Z,10.80
2023-05-14T03:39:21.591Z,10.80
2023-05-14T03:44:23.360Z,11.00
2023-05-14T03:49:25.731Z,10.60
2023-05-14T03:54:27.551Z,10.60
2023-05-14T03:59:29.292Z,10.80
2023-05-14T04:04:31.104Z,10.60
2023-05-14T04:09:32.921Z,10.70
2023-05-14T04:14:34.651Z,10.90
2023-05-14T04:19:36.386Z,11.00
2023-05-14T04:24:38.103Z,11.00
2023-05-14T04:29:39.836Z,11.20
2023-05-14T04:34:41.605Z,11.20
2023-05-14T04:39:43.677Z,11.40
2023-05-14T04:44:45.627Z,11.30
2023-05-14T04:49:47.359Z,11.20
2023-05-14T04:54:49.224Z,11.30
2023-05-14T04:59:51.017Z,11.50
2023-05-14T05:04:52.725Z,11.50
2023-05-14T05:09:54.646Z,11.60
2023-05-14T05:14:59.147Z,11.70
2023-05-14T05:20:00.926Z,11.80
2023-05-14T05:25:06.245Z,11.70
2023-05-14T05:30:08.493Z,11.70
2023-05-14T05:35:10.388Z,11.60
2023-05-14T05:40:14.065Z,11.70
2023-05-14T05:45:16.009Z,11.80
2023-05-14T05:50:19.816Z,11.80
2023-05-14T05:55:21.743Z,11.90
2023-05-14T06:00:24.523Z,12.10
2023-05-14T06:05:26.996Z,12.40
2023-05-14T06:10:30.116Z,12.40
2023-05-14T06:15:32.067Z,12.60
2023-05-14T06:20:34.396Z,12.80
2023-05-14T06:25:36.133Z,13.10
2023-05-14T06:30:37.913Z,13.20
2023-05-14T06:35:39.731Z,13.50
2023-05-14T06:40:41.443Z,13.90
2023-05-14T06:45:43.188Z,14.10
2023-05-14T06:50:45.895Z,14.40
2023-05-14T06:55:48.601Z,14.70
2023-05-14T07:00:50.333Z,14.90
2023-05-14T07:05:52.063Z,15.00
2023-05-14T07:10:53.753Z,15.00
2023-05-14T07:15:58.527Z,15.30
2023-05-14T07:21:00.444Z,15.60
2023-05-14T07:26:03.446Z,15.80
2023-05-14T07:31:09.071Z,16.20
2023-05-14T07:36:11.138Z,16.20
2023-05-14T07:41:13.083Z,16.20
2023-05-14T07:46:15.169Z,16.20
2023-05-14T07:51:16.929Z,16.20
2023-05-14T07:56:18.676Z,16.40
2023-05-14T08:01:20.836Z,16.40
2023-05-14T08:06:23.738Z,16.60
2023-05-14T08:11:26.190Z,16.70
2023-05-14T08:16:28.063Z,16.80
2023-05-14T08:21:29.890Z,17.10
2023-05-14T08:26:31.806Z,17.20
2023-05-14T08:31:33.548Z,17.40
2023-05-14T08:36:35.516Z,17.30
2023-05-14T08:41:40.366Z,17.70
2023-05-14T08:46:42.434Z,18.80
2023-05-14T08:51:48.587Z,19.30
2023-05-14T08:56:52.298Z,18.80
2023-05-14T09:01:56.101Z,18.80
2023-05-14T09:07:00.328Z,18.40
2023-05-14T09:12:02.379Z,19.00
2023-05-14T09:17:04.396Z,19.50
2023-05-14T09:22:09.364Z,19.90
2023-05-14T09:27:20.060Z,20.20
2023-05-14T09:32:21.860Z,19.90
2023-05-14T09:37:26.106Z,20.00
2023-05-14T09:42:28.141Z,19.70
2023-05-14T09:47:30.054Z,19.50
2023-05-14T09:52:32.100Z,19.50
2023-05-14T09:57:34.604Z,19.90
2023-05-14T10:02:38.086Z,19.70
2023-05-14T10:07:45.925Z,19.50
2023-05-14T10:13:00.837Z,19.60
2023-05-14T10:18:08.089Z,19.90
2023-05-14T10:23:10.124Z,20.20
2023-05-14T10:28:12.098Z,20.40
2023-05-14T10:33:16.714Z,20.50
2023-05-14T10:38:23.159Z,20.70
2023-05-14T10:43:29.030Z,20.80
2023-05-14T10:48:31.925Z,21.00
2023-05-14T10:53:38.613Z,20.50
2023-05-14T10:58:43.010Z,20.50
2023-05-14T11:03:46.974Z,20.70
2023-05-14T11:08:51.633Z,20.80
2023-05-14T11:13:54.431Z,20.80
2023-05-14T11:19:04.449Z,20.70
2023-05-14T11:24:07.467Z,20.90
2023-05-14T11:29:10.533Z,20.70
2023-05-14T11:34:12.357Z,21.10
2023-05-14T11:39:20.343Z,21.40
2023-05-14T11:44:22.702Z,21.90
2023-05-14T11:49:25.627Z,23.10
2023-05-14T11:54:30.789Z,22.90
2023-05-14T11:59:32.732Z,21.50
2023-05-14T12:04:34.621Z,20.80
2023-05-14T12:09:39.249Z,19.90
2023-05-14T12:14:42.796Z,19.50
2023-05-14T12:19:46.236Z,19.40
2023-05-14T12:24:58.441Z,19.40
2023-05-14T12:30:19.127Z,19.70
2023-05-14T12:35:22.902Z,19.80
2023-05-14T12:40:25.232Z,19.80
2023-05-14T12:45:27.252Z,19.80
2023-05-14T12:50:29.489Z,19.80
2023-05-14T12:55:31.557Z,20.10
2023-05-14T13:00:33.311Z,19.30
2023-05-14T13:05:35.138Z,19.80
2023-05-14T13:10:36.912Z,18.60
2023-05-14T13:15:38.679Z,17.90
2023-05-14T13:20:42.973Z,17.50
2023-05-14T13:25:45.073Z,17.00
2023-05-14T13:31:05.143Z,17.20
2023-05-14T13:36:08.120Z,17.20
2023-05-14T13:41:09.884Z,16.30
2023-05-14T13:46:11.716Z,16.50
2023-05-14T13:51:13.567Z,16.40
2023-05-14T13:56:15.351Z,16.30
2023-05-14T14:01:17.194Z,16.80
2023-05-14T14:06:18.932Z,17.50
2023-05-14T14:11:20.844Z,18.20
2023-05-14T14:16:22.599Z,19.00
2023-05-14T14:21:24.402Z,18.80
2023-05-14T14:26:27.912Z,19.00
2023-05-14T14:31:29.782Z,19.60
2023-05-14T14:36:31.761Z,20.20
2023-05-14T14:41:33.545Z,21.00
2023-05-14T14:46:35.433Z,21.20
2023-05-14T14:51:37.262Z,21.40
2023-05-14T14:56:39.290Z,22.00
2023-05-14T15:01:41.149Z,22.00
2023-05-14T15:06:42.865Z,21.40
2023-05-14T15:11:45.098Z,21.60
2023-05-14T15:16:49.632Z,21.90
2023-05-14T15:21:53.211Z,21.90
2023-05-14T15:26:54.998Z,22.40
2023-05-14T15:31:57.206Z,22.50
2023-05-14T15:36:59.100Z,22.50
2023-05-14T15:42:01.189Z,21.90
2023-05-14T15:47:03.048Z,21.00
2023-05-14T15:52:05.083Z,21.20
2023-05-14T15:57:07.063Z,21.60
2023-05-14T16:02:09.210Z,21.50
2023-05-14T16:07:12.049Z,21.10
2023-05-14T16:12:14.348Z,20.70
2023-05-14T16:17:16.111Z,20.60
2023-05-14T16:22:17.870Z,20.50
2023-05-14T16:27:19.813Z,19.60
2023-05-14T16:32:22.812Z,19.70
2023-05-14T16:37:24.627Z,19.70
2023-05-14T16:42:26.526Z,19.50
2023-05-14T16:47:28.340Z,19.20
2023-05-14T16:52:30.880Z,19.10
2023-05-14T16:57:32.605Z,19.20
2023-05-14T17:02:34.516Z,19.20
2023-05-14T17:07:38.414Z,19.10
2023-05-14T17:12:40.116Z,19.00
2023-05-14T17:17:41.973Z,19.00
2023-05-14T17:22:43.927Z,19.30
2023-05-14T17:27:45.746Z,19.50
2023-05-14T17:32:50.314Z,19.60
2023-05-14T17:37:52.752Z,19.90
2023-05-14T17:42:54.533Z,19.90
2023-05-14T17:47:56.269Z,19.70
2023-05-14T17:52:58.144Z,19.70
2023-05-14T17:57:59.883Z,19.70
2023-05-14T18:03:01.674Z,19.30
2023-05-14T18:08:03.558Z,18.60
2023-05-14T18:13:05.447Z,18.60
2023-05-14T18:18:07.404Z,18.50
2023-05-14T18:23:09.133Z,18.10
2023-05-14T18:28:11.351Z,17.60
2023-05-14T18:33:13.265Z,17.40
2023-05-14T18:38:17.800Z,17.30
2023-05-14T18:43:19.809Z,17.00
2023-05-14T18:48:21.600Z,16.70
2023-05-14T18:53:23.396Z,16.20
2023-05-14T18:58:25.157Z,16.00
2023-05-14T19:03:27.105Z,15.80
2023-05-14T19:08:28.958Z,15.60
2023-05-14T19:13:30.643Z,14.90
2023-05-14T19:18:32.518Z,14.60
2023-05-14T19:23:34.269Z,14.70
2023-05-14T19:28:37.972Z,14.60
2023-05-14T19:33:39.672Z,14.50
2023-05-14T19:38:41.347Z,14.40
2023-05-14T19:43:43.125Z,14.30
2023-05-14T19:48:44.951Z,14.20
2023-05-14T19:53:46.814Z,14.00
2023-05-14T19:58:48.690Z,13.80
2023-05-14T20:03:50.462Z,14.10
2023-05-14T20:08:52.580Z,14.20
2023-05-14T20:13:54.383Z,14.20
2023-05-14T20:18:56.292Z,14.00
2023-05-14T20:23:58.161Z,14.00
2023-05-14T20:28:59.940Z,13.80
2023-05-14T20:34:01.639Z,13.70
2023-05-14T20:39:06.161Z,13.70
2023-05-14T20:44:08.040Z,13.70
2023-05-14T20:49:09.778Z,13.70
2023-05-14T20:54:11.494Z,13.50
2023-05-14T20:59:13.270Z,13.50
2023-05-14T21:04:15.284Z,13.70
2023-05-14T21:09:17.254Z,13.80
2023-05-14T21:14:19.074Z,13.80
2023-05-14T21:19:22.461Z,13.70
2023-05-14T21:24:24.276Z,13.50
2023-05-14T21:29:26.004Z,13.30
2023-05-14T21:34:29.179Z,13.30
2023-05-14T21:39:32.296Z,13.40
2023-05-14T21:44:34.026Z,13.50
2023-05-14T21:49:35.801Z,13.60
2023-05-14T21:54:37.607Z,13.60
2023-05-14T21:59:39.309Z,13.60
2023-05-14T22:04:41.117Z,13.70
2023-05-14T22:09:42.826Z,13.70
2023-05-14T22:14:44.559Z,13.70
2023-05-14T22:19:46.455Z,13.70
2023-05-14T22:24:48.230Z,13.70
2023-05-14T22:29:50.030Z,13.80
2023-05-14T22:34:51.764Z,13.70
2023-05-14T22:39:53.467Z,13.70
2023-05-14T22:44:55.284Z,13.60
2023-05-14T22:49:57.032Z,13.70
2023-05-14T22:54:58.741Z,13.70
2023-05-14T23:00:00.695Z,13.50
2023-05-14T23:05:02.769Z,13.60
2023-05-14T23:10:05.117Z,13.70
2023-05-14T23:15:07.231Z,13.80
2023-05-14T23:20:15.463Z,13.80
2023-05-14T23:25:17.271Z,13.80
2023-05-14T23:30:18.992Z,13.80
2023-05-14T23:35:20.721Z,13.70
2023-05-14T23:40:22.482Z,13.50
2023-05-14T23:45:24.459Z,13.20
2023-05-14T23:50:26.609Z,12.80
2023-05-14T23:55:28.380Z,13.00
